createdAt,value
2022-08-22T00:02:30.469Z,51.67
2022-08-22T00:02:44.407Z,48.23
2022-08-22T00:02:53.826Z,43.58
2022-08-22T00:03:01.344Z,41.38
2022-08-22T00:03:01.344Z,45.90
2022-08-22T00:05:06.353Z,51.62
2022-08-22T00:08:03.565Z,51.34
2022-08-22T00:10:54.530Z,51.24
2022-08-22T00:13:40.999Z,51.41
2022-08-22T00:16:16.768Z,52.18
2022-08-22T00:18:46.331Z,51.90
2022-08-22T00:21:22.116Z,52.11
2022-08-22T00:24:04.501Z,52.00
2022-08-22T00:26:53.629Z,51.84
2022-08-22T00:29:27.335Z,52.27
2022-08-22T00:32:24.480Z,51.65
2022-08-22T00:35:15.216Z,52.32
2022-08-22T00:37:52.228Z,52.05
2022-08-22T00:40:41.536Z,52.67
2022-08-22T00:43:19.744Z,51.92
2022-08-22T00:45:58.121Z,52.16
2022-08-22T00:49:02.266Z,52.67
2022-08-22T00:51:34.825Z,52.82
2022-08-22T00:54:27.841Z,53.19
2022-08-22T00:57:33.391Z,53.05
2022-08-22T01:00:09.285Z,53.31
2022-08-22T01:02:52.671Z,53.54
2022-08-22T01:05:44.981Z,53.76
2022-08-22T01:08:29.551Z,53.20
2022-08-22T01:11:40.283Z,53.51
2022-08-22T01:14:59.313Z,53.08
2022-08-22T01:17:35.140Z,53.56
2022-08-22T01:20:38.967Z,53.63
2022-08-22T01:23:24.320Z,53.47
2022-08-22T01:26:21.642Z,53.83
2022-08-22T01:29:11.933Z,53.78
2022-08-22T01:32:17.252Z,53.69
2022-08-22T01:34:49.804Z,53.41
2022-08-22T01:37:43.505Z,53.46
2022-08-22T01:40:30.806Z,53.53
2022-08-22T01:43:17.961Z,53.39
2022-08-22T01:46:33.891Z,53.80
2022-08-22T01:49:21.680Z,53.25
2022-08-22T01:52:10.672Z,54.42
2022-08-22T01:54:58.956Z,54.24
2022-08-22T01:57:27.151Z,53.87
2022-08-22T02:00:08.867Z,54.47
2022-08-22T02:02:47.963Z,54.64
2022-08-22T02:05:31.790Z,54.71
2022-08-22T02:08:03.845Z,55.00
2022-08-22T02:11:01.608Z,54.35
2022-08-22T02:13:31.093Z,54.45
2022-08-22T02:16:13.360Z,54.71
2022-08-22T02:18:56.439Z,54.59
2022-08-22T02:21:32.024Z,54.69
2022-08-22T02:24:03.233Z,54.35
2022-08-22T02:27:10.951Z,54.66
2022-08-22T02:30:07.783Z,54.59
2022-08-22T02:32:40.097Z,54.87
2022-08-22T02:35:12.755Z,55.00
2022-08-22T02:37:39.595Z,54.31
2022-08-22T02:40:32.240Z,54.78
2022-08-22T02:43:07.727Z,54.92
2022-08-22T02:45:49.243Z,55.03
2022-08-22T02:48:34.193Z,54.96
2022-08-22T02:51:15.298Z,54.61
2022-08-22T02:53:53.784Z,55.21
2022-08-22T02:56:52.566Z,55.00
2022-08-22T02:59:54.729Z,55.41
2022-08-22T03:02:34.728Z,55.60
2022-08-22T03:05:20.619Z,55.28
2022-08-22T03:08:09.639Z,55.54
2022-08-22T03:10:45.811Z,55.61
2022-08-22T03:13:24.990Z,55.13
2022-08-22T03:16:06.217Z,55.92
2022-08-22T03:18:32.747Z,55.21
2022-08-22T03:21:28.467Z,56.02
2022-08-22T03:24:05.703Z,56.21
2022-08-22T03:26:56.065Z,56.11
2022-08-22T03:29:29.126Z,56.00
2022-08-22T03:32:14.596Z,54.92
2022-08-22T03:35:08.528Z,55.62
2022-08-22T03:37:37.882Z,55.77
2022-08-22T03:40:19.436Z,55.27
2022-08-22T03:42:55.519Z,55.70
2022-08-22T03:45:41.575Z,55.91
2022-08-22T03:48:25.024Z,56.68
2022-08-22T03:51:14.572Z,56.45
2022-08-22T03:54:09.328Z,56.29
2022-08-22T03:56:56.028Z,56.98
2022-08-22T03:59:56.160Z,57.13
2022-08-22T04:02:51.240Z,56.92
2022-08-22T04:05:36.259Z,57.06
2022-08-22T04:08:30.600Z,57.21
2022-08-22T04:11:25.161Z,57.08
2022-08-22T04:14:10.812Z,57.27
2022-08-22T04:16:58.788Z,57.32
2022-08-22T04:19:57.439Z,57.54
2022-08-22T04:22:39.727Z,57.19
2022-08-22T04:25:17.370Z,57.94
2022-08-22T04:28:13.469Z,57.53
2022-08-22T04:30:39.969Z,56.67
2022-08-22T04:33:33.587Z,58.02
2022-08-22T04:36:18.899Z,56.18
2022-08-22T04:38:58.639Z,57.62
2022-08-22T04:41:45.596Z,57.64
2022-08-22T04:44:21.733Z,58.08
2022-08-22T04:46:56.495Z,58.41
2022-08-22T04:49:40.697Z,58.36
2022-08-22T04:52:49.354Z,58.60
2022-08-22T04:55:31.777Z,58.46
2022-08-22T04:58:20.284Z,58.63
2022-08-22T05:00:52.748Z,58.68
2022-08-22T05:03:23.836Z,58.38
2022-08-22T05:05:53.932Z,58.16
2022-08-22T05:08:25.878Z,58.94
2022-08-22T05:10:53.755Z,58.12
2022-08-22T05:13:32.723Z,59.32
2022-08-22T05:16:05.973Z,59.18
2022-08-22T05:18:39.464Z,59.38
2022-08-22T05:21:09.249Z,59.29
2022-08-22T05:23:59.020Z,59.46
2022-08-22T05:26:28.257Z,58.75
2022-08-22T05:29:03.931Z,59.49
2022-08-22T05:31:34.878Z,59.28
2022-08-22T05:34:10.274Z,59.84
2022-08-22T05:36:55.734Z,59.47
2022-08-22T05:39:28.027Z,59.46
2022-08-22T05:42:00.356Z,59.26
2022-08-22T05:44:37.636Z,60.06
2022-08-22T05:47:18.974Z,59.79
2022-08-22T05:49:48.483Z,59.74
2022-08-22T05:52:30.683Z,60.06
2022-08-22T05:55:33.629Z,60.16
2022-08-22T05:58:09.359Z,59.75
2022-08-22T06:00:41.520Z,59.84
2022-08-22T06:03:31.195Z,59.87
2022-08-22T06:06:03.344Z,59.69
2022-08-22T06:08:40.151Z,59.80
2022-08-22T06:11:33.581Z,59.91
2022-08-22T06:14:38.705Z,59.87
2022-08-22T06:21:00.119Z,59.35
2022-08-22T06:23:40.013Z,59.74
2022-08-22T06:26:20.668Z,58.93
2022-08-22T06:28:54.734Z,59.14
2022-08-22T06:31:35.821Z,59.39
2022-08-22T06:34:11.967Z,59.11
2022-08-22T06:36:43.871Z,59.03
2022-08-22T06:39:14.785Z,59.77
2022-08-22T06:41:50.933Z,59.33
2022-08-22T06:44:22.302Z,58.90
2022-08-22T06:46:53.481Z,58.99
2022-08-22T06:49:23.378Z,59.04
2022-08-22T06:51:51.230Z,58.35
2022-08-22T06:54:30.374Z,58.43
2022-08-22T06:56:59.794Z,58.05
2022-08-22T06:59:29.135Z,58.33
2022-08-22T07:02:08.040Z,57.94
2022-08-22T07:04:34.719Z,57.57
2022-08-22T07:07:02.588Z,57.63
2022-08-22T07:09:34.883Z,57.37
2022-08-22T07:12:10.999Z,57.08
2022-08-22T07:14:47.678Z,56.84
2022-08-22T07:17:21.692Z,56.79
2022-08-22T07:19:59.660Z,56.93
2022-08-22T07:22:33.040Z,56.85
2022-08-22T07:25:02.769Z,56.60
2022-08-22T07:27:48.758Z,56.35
2022-08-22T07:30:27.233Z,56.24
2022-08-22T07:33:24.934Z,56.14
2022-08-22T07:36:01.839Z,56.30
2022-08-22T07:38:43.886Z,56.97
2022-08-22T07:41:28.723Z,56.72
2022-08-22T07:44:21.301Z,57.19
2022-08-22T07:46:48.054Z,56.52
2022-08-22T07:49:21.844Z,56.64
2022-08-22T07:51:54.328Z,56.44
2022-08-22T07:54:33.652Z,56.23
2022-08-22T07:57:07.266Z,55.91
2022-08-22T07:59:37.270Z,55.78
2022-08-22T08:02:10.833Z,55.65
2022-08-22T08:04:40.670Z,55.63
2022-08-22T08:07:10.732Z,55.55
2022-08-22T08:09:50.541Z,54.68
2022-08-22T08:12:21.974Z,54.96
2022-08-22T08:14:53.599Z,54.47
2022-08-22T08:17:31.856Z,54.31
2022-08-22T08:20:03.453Z,53.81
2022-08-22T08:22:31.137Z,54.33
2022-08-22T08:25:00.539Z,53.91
2022-08-22T08:27:50.443Z,53.81
2022-08-22T08:30:39.294Z,53.55
2022-08-22T08:33:25.594Z,54.19
2022-08-22T08:36:02.909Z,53.85
2022-08-22T08:38:36.750Z,53.35
2022-08-22T08:41:25.150Z,53.39
2022-08-22T08:44:27.544Z,53.83
2022-08-22T08:47:03.005Z,54.12
2022-08-22T08:49:42.785Z,54.21
2022-08-22T08:52:18.778Z,53.56
2022-08-22T08:55:19.991Z,53.21
2022-08-22T08:58:28.777Z,53.10
2022-08-22T09:01:12.694Z,53.10
2022-08-22T09:03:42.379Z,53.57
2022-08-22T09:06:22.834Z,52.79
2022-08-22T09:08:53.853Z,52.73
2022-08-22T09:14:21.515Z,52.47
2022-08-22T09:17:17.539Z,51.70
2022-08-22T09:20:15.536Z,52.59
2022-08-22T09:23:14.071Z,52.35
2022-08-22T09:25:55.121Z,52.20
2022-08-22T09:28:40.539Z,52.98
2022-08-22T09:31:33.241Z,51.92
2022-08-22T09:34:34.685Z,51.46
2022-08-22T09:37:29.754Z,51.33
2022-08-22T09:40:06.306Z,50.62
2022-08-22T09:42:46.521Z,50.61
2022-08-22T09:45:34.753Z,50.86
2022-08-22T09:48:09.158Z,50.37
2022-08-22T09:50:48.788Z,50.46
2022-08-22T09:53:21.478Z,49.74
2022-08-22T09:56:00.630Z,49.87
2022-08-22T09:58:57.875Z,49.22
2022-08-22T10:01:33.316Z,49.39
2022-08-22T10:04:19.498Z,48.82
2022-08-22T10:07:11.885Z,48.89
2022-08-22T10:09:55.407Z,48.84
2022-08-22T10:12:36.151Z,48.49
2022-08-22T10:15:33.843Z,48.82
2022-08-22T10:18:18.616Z,48.87
2022-08-22T10:21:02.607Z,48.60
2022-08-22T10:23:38.574Z,48.43
2022-08-22T10:26:29.416Z,48.85
2022-08-22T10:29:22.029Z,48.36
2022-08-22T10:32:15.659Z,48.16
2022-08-22T10:34:50.588Z,47.99
2022-08-22T10:37:23.787Z,48.00
2022-08-22T10:39:53.382Z,47.12
2022-08-22T10:42:28.727Z,46.58
2022-08-22T10:45:24.050Z,47.11
2022-08-22T10:48:08.049Z,45.60
2022-08-22T10:50:46.836Z,46.41
2022-08-22T10:53:35.050Z,46.66
2022-08-22T10:56:16.096Z,47.13
2022-08-22T10:58:58.137Z,48.07
2022-08-22T11:01:37.793Z,47.27
2022-08-22T11:04:28.175Z,45.91
2022-08-22T11:07:12.384Z,45.86
2022-08-22T11:09:55.301Z,44.44
2022-08-22T11:12:34.643Z,42.61
2022-08-22T11:15:34.438Z,43.21
2022-08-22T11:18:04.818Z,41.26
2022-08-22T11:21:11.227Z,41.07
2022-08-22T11:23:48.393Z,39.18
2022-08-22T11:26:38.317Z,39.25
2022-08-22T11:29:13.133Z,39.44
2022-08-22T11:31:47.276Z,39.66
2022-08-22T11:34:42.117Z,39.67
2022-08-22T11:37:20.621Z,38.41
2022-08-22T11:40:26.268Z,38.63
2022-08-22T11:43:27.181Z,39.78
2022-08-22T11:46:15.199Z,38.36
2022-08-22T11:49:06.934Z,39.55
2022-08-22T11:52:12.111Z,38.40
2022-08-22T11:55:12.724Z,37.98
2022-08-22T11:57:50.331Z,36.85
2022-08-22T12:00:26.707Z,36.54
2022-08-22T12:03:12.955Z,36.67
2022-08-22T12:06:00.090Z,35.61
2022-08-22T12:08:29.662Z,35.76
2022-08-22T12:11:03.524Z,36.27
2022-08-22T12:14:06.129Z,37.77
2022-08-22T12:16:59.060Z,37.49
2022-08-22T12:19:32.895Z,38.45
2022-08-22T12:22:18.366Z,36.47
2022-08-22T12:25:05.299Z,37.00
2022-08-22T12:27:48.262Z,36.80
2022-08-22T12:30:43.294Z,36.67
2022-08-22T12:33:24.055Z,36.42
2022-08-22T12:35:53.870Z,36.95
2022-08-22T12:38:27.913Z,37.16
2022-08-22T12:40:59.072Z,36.75
2022-08-22T12:43:49.800Z,37.29
2022-08-22T12:46:55.024Z,37.70
2022-08-22T12:49:52.233Z,36.89
2022-08-22T12:52:44.376Z,37.71
2022-08-22T12:55:55.638Z,38.47
2022-08-22T12:58:43.084Z,36.74
2022-08-22T13:01:11.359Z,37.10
2022-08-22T13:03:47.334Z,35.99
2022-08-22T13:06:42.507Z,36.22
2022-08-22T13:09:28.686Z,35.95
2022-08-22T13:12:00.386Z,35.46
2022-08-22T13:14:32.010Z,35.61
2022-08-22T13:17:23.790Z,34.70
2022-08-22T13:20:00.639Z,34.50
2022-08-22T13:22:31.950Z,35.03
2022-08-22T13:25:01.310Z,34.86
2022-08-22T13:27:36.118Z,35.00
2022-08-22T13:30:12.416Z,34.96
2022-08-22T13:32:48.159Z,35.26
2022-08-22T13:35:24.385Z,34.17
2022-08-22T13:37:57.661Z,33.75
2022-08-22T13:40:31.197Z,33.52
2022-08-22T13:43:05.261Z,34.55
2022-08-22T13:45:35.125Z,34.47
2022-08-22T13:48:14.137Z,33.65
2022-08-22T13:51:09.790Z,35.13
2022-08-22T13:53:49.913Z,34.45
2022-08-22T13:56:47.295Z,34.46
2022-08-22T13:59:53.743Z,34.57
2022-08-22T14:02:50.261Z,34.34
2022-08-22T14:05:28.045Z,33.96
2022-08-22T14:08:13.319Z,35.36
2022-08-22T14:10:52.206Z,34.55
2022-08-22T14:13:37.878Z,33.95
2022-08-22T14:16:10.580Z,34.11
2022-08-22T14:18:57.344Z,36.03
2022-08-22T14:21:45.348Z,35.49
2022-08-22T14:24:45.724Z,34.71
2022-08-22T14:27:27.635Z,34.18
2022-08-22T14:29:58.747Z,34.49
2022-08-22T14:32:26.799Z,35.53
2022-08-22T14:35:17.030Z,34.89
2022-08-22T14:38:17.310Z,35.08
2022-08-22T14:40:45.638Z,34.40
2022-08-22T14:43:40.319Z,35.46
2022-08-22T14:46:12.664Z,34.91
2022-08-22T14:48:58.735Z,35.97
2022-08-22T14:51:26.544Z,35.80
2022-08-22T14:53:53.382Z,35.03
2022-08-22T14:56:24.989Z,34.11
2022-08-22T14:59:04.511Z,34.09
2022-08-22T15:01:50.487Z,34.21
2022-08-22T15:04:25.542Z,33.79
2022-08-22T15:06:58.656Z,33.49
2022-08-22T15:09:31.771Z,34.37
2022-08-22T15:12:01.745Z,34.78
2022-08-22T15:14:52.586Z,35.39
2022-08-22T15:17:50.965Z,34.47
2022-08-22T15:20:27.644Z,34.06
2022-08-22T15:22:58.672Z,34.22
2022-08-22T15:25:31.263Z,33.86
2022-08-22T15:28:05.149Z,35.14
2022-08-22T15:30:36.613Z,34.40
2022-08-22T15:33:13.517Z,34.23
2022-08-22T15:35:42.228Z,34.33
2022-08-22T15:38:31.397Z,34.44
2022-08-22T15:41:36.880Z,34.25
2022-08-22T15:44:32.166Z,34.61
2022-08-22T15:47:03.124Z,33.97
2022-08-22T15:49:35.573Z,34.00
2022-08-22T15:52:02.120Z,34.88
2022-08-22T15:54:53.257Z,34.58
2022-08-22T15:57:35.178Z,34.43
2022-08-22T16:00:12.252Z,34.01
2022-08-22T16:02:54.746Z,34.06
2022-08-22T16:05:27.626Z,33.49
2022-08-22T16:08:08.282Z,33.58
2022-08-22T16:10:46.171Z,33.61
2022-08-22T16:13:29.497Z,33.71
2022-08-22T16:15:58.713Z,33.02
2022-08-22T16:18:34.400Z,32.77
2022-08-22T16:21:11.150Z,32.60
2022-08-22T16:23:46.675Z,32.38
2022-08-22T16:26:17.108Z,31.80
2022-08-22T16:28:59.375Z,32.20
2022-08-22T16:31:45.294Z,32.12
2022-08-22T16:34:20.594Z,31.87
2022-08-22T16:37:08.638Z,31.75
2022-08-22T16:40:07.539Z,32.79
2022-08-22T16:42:36.720Z,32.51
2022-08-22T16:45:06.125Z,32.90
2022-08-22T16:47:54.485Z,33.10
2022-08-22T16:50:36.069Z,33.85
2022-08-22T16:53:08.517Z,33.75
2022-08-22T16:55:36.090Z,33.47
2022-08-22T16:58:17.250Z,33.32
2022-08-22T17:01:06.507Z,33.83
2022-08-22T17:03:45.173Z,33.65
2022-08-22T17:06:39.601Z,33.77
2022-08-22T17:09:09.465Z,33.73
2022-08-22T17:11:48.027Z,34.35
2022-08-22T17:14:34.534Z,34.58
2022-08-22T17:17:16.247Z,34.15
2022-08-22T17:20:01.314Z,34.86
2022-08-22T17:22:50.620Z,34.82
2022-08-22T17:25:34.127Z,34.56
2022-08-22T17:28:21.145Z,34.94
2022-08-22T17:30:50.667Z,35.50
2022-08-22T17:33:42.869Z,35.52
2022-08-22T17:36:27.088Z,36.03
2022-08-22T17:39:05.971Z,35.94
2022-08-22T17:42:23.902Z,36.39
2022-08-22T17:45:27.592Z,36.10
2022-08-22T17:48:00.713Z,36.18
2022-08-22T17:50:46.766Z,36.70
2022-08-22T17:53:28.537Z,36.77
2022-08-22T17:56:02.143Z,37.03
2022-08-22T17:58:43.378Z,36.98
2022-08-22T18:01:14.986Z,36.90
2022-08-22T18:03:53.098Z,36.77
2022-08-22T18:06:31.960Z,37.08
2022-08-22T18:09:16.586Z,37.55
2022-08-22T18:11:51.363Z,37.69
2022-08-22T18:14:29.953Z,37.95
2022-08-22T18:16:59.365Z,37.96
2022-08-22T18:19:50.077Z,37.91
2022-08-22T18:22:33.423Z,38.14
2022-08-22T18:25:08.424Z,38.59
2022-08-22T18:27:38.543Z,38.42
2022-08-22T18:30:11.169Z,38.81
2022-08-22T18:33:02.299Z,39.42
2022-08-22T18:35:41.363Z,39.49
2022-08-22T18:38:22.127Z,39.43
2022-08-22T18:40:51.807Z,40.18
2022-08-22T18:43:29.789Z,40.25
2022-08-22T18:46:03.304Z,40.04
2022-08-22T18:48:36.917Z,40.87
2022-08-22T18:51:38.701Z,41.06
2022-08-22T18:54:05.364Z,41.28
2022-08-22T18:56:33.195Z,41.82
2022-08-22T18:59:36.512Z,41.50
2022-08-22T19:02:21.836Z,41.32
2022-08-22T19:05:21.432Z,41.61
2022-08-22T19:08:13.384Z,41.55
2022-08-22T19:11:08.127Z,41.79
2022-08-22T19:14:09.274Z,41.35
2022-08-22T19:16:42.001Z,42.03
2022-08-22T19:19:17.059Z,42.21
2022-08-22T19:22:21.891Z,42.32
2022-08-22T19:25:13.405Z,42.57
2022-08-22T19:27:44.716Z,43.34
2022-08-22T19:30:33.089Z,43.84
2022-08-22T19:33:10.820Z,43.81
2022-08-22T19:36:05.095Z,43.98
2022-08-22T19:38:50.071Z,43.82
2022-08-22T19:41:58.111Z,44.38
2022-08-22T19:44:37.774Z,44.32
2022-08-22T19:47:24.335Z,44.60
2022-08-22T19:49:50.850Z,44.52
2022-08-22T19:52:42.078Z,45.26
2022-08-22T19:55:33.093Z,45.10
2022-08-22T19:58:02.581Z,44.70
2022-08-22T20:00:57.738Z,44.61
2022-08-22T20:03:43.068Z,44.72
2022-08-22T20:06:43.574Z,45.56
2022-08-22T20:09:48.755Z,45.25
2022-08-22T20:12:24.823Z,46.27
2022-08-22T20:14:52.046Z,45.12
2022-08-22T20:17:24.600Z,45.90
2022-08-22T20:20:17.604Z,45.43
2022-08-22T20:22:52.710Z,45.71
2022-08-22T20:25:43.548Z,45.08
2022-08-22T20:28:27.335Z,45.41
2022-08-22T20:30:59.101Z,45.76
2022-08-22T20:33:48.222Z,45.83
2022-08-22T20:36:28.683Z,45.06
2022-08-22T20:39:03.008Z,45.84
2022-08-22T20:41:37.469Z,45.16
2022-08-22T20:44:15.918Z,46.15
2022-08-22T20:46:55.866Z,46.57
2022-08-22T20:49:30.051Z,46.10
2022-08-22T20:52:03.876Z,46.09
2022-08-22T20:54:34.306Z,46.54
2022-08-22T20:57:21.565Z,46.34
2022-08-22T21:00:11.703Z,46.38
2022-08-22T21:02:44.263Z,46.87
2022-08-22T21:05:13.800Z,46.91
2022-08-22T21:07:43.608Z,46.98
2022-08-22T21:10:44.233Z,47.75
2022-08-22T21:13:42.011Z,48.54
2022-08-22T21:16:15.675Z,48.21
2022-08-22T21:18:45.923Z,48.15
2022-08-22T21:21:20.859Z,48.56
2022-08-22T21:23:59.932Z,47.43
2022-08-22T21:26:51.766Z,46.74
2022-08-22T21:29:23.354Z,47.21
2022-08-22T21:31:59.278Z,47.44
2022-08-22T21:34:41.678Z,47.77
2022-08-22T21:37:16.011Z,47.71
2022-08-22T21:40:04.109Z,47.81
2022-08-22T21:42:40.555Z,48.29
2022-08-22T21:45:32.193Z,48.07
2022-08-22T21:47:59.408Z,48.19
2022-08-22T21:50:31.845Z,48.70
2022-08-22T21:53:05.734Z,49.03
2022-08-22T21:55:48.001Z,48.07
2022-08-22T21:58:35.035Z,48.05
2022-08-22T22:01:04.064Z,48.07
2022-08-22T22:03:36.718Z,48.15
2022-08-22T22:06:05.659Z,48.13
2022-08-22T22:08:33.181Z,48.08
2022-08-22T22:11:03.474Z,48.99
2022-08-22T22:13:34.959Z,48.61
2022-08-22T22:16:01.562Z,48.89
2022-08-22T22:18:32.481Z,49.35
2022-08-22T22:20:59.779Z,49.08
2022-08-22T22:23:27.273Z,49.30
2022-08-22T22:25:56.432Z,49.25
2022-08-22T22:28:31.844Z,50.06
2022-08-22T22:30:58.722Z,49.58
2022-08-22T22:33:28.703Z,50.19
2022-08-22T22:35:58.654Z,50.28
2022-08-22T22:38:26.064Z,49.95
2022-08-22T22:40:53.155Z,49.85
2022-08-22T22:43:19.949Z,49.83
2022-08-22T22:45:46.615Z,49.94
2022-08-22T22:48:17.531Z,50.13
2022-08-22T22:50:50.558Z,50.09
2022-08-22T22:53:19.657Z,50.33
2022-08-22T22:56:00.170Z,50.16
2022-08-22T22:58:28.133Z,50.38
2022-08-22T23:00:55.471Z,50.45
2022-08-22T23:03:22.426Z,50.49
2022-08-22T23:05:48.986Z,50.02
2022-08-22T23:08:15.514Z,50.14
2022-08-22T23:10:42.065Z,50.77
2022-08-22T23:13:08.660Z,50.53
2022-08-22T23:15:35.247Z,50.17
2022-08-22T23:18:02.417Z,50.50
2022-08-22T23:20:28.986Z,50.57
2022-08-22T23:22:55.548Z,50.73
2022-08-22T23:25:28.034Z,51.11
2022-08-22T23:27:54.837Z,51.39
2022-08-22T23:30:22.048Z,51.32
2022-08-22T23:32:48.725Z,51.30
2022-08-22T23:35:15.319Z,51.59
2022-08-22T23:37:41.881Z,51.16
2022-08-22T23:40:09.619Z,51.83
2022-08-22T23:42:36.392Z,51.85
2022-08-22T23:45:03.313Z,51.98
2022-08-22T23:47:29.854Z,52.09
2022-08-22T23:49:56.443Z,52.07
2022-08-22T23:52:23.000Z,52.04
2022-08-22T23:54:51.567Z,52.04
2022-08-22T23:57:27.321Z,51.55
2022-08-22T23:59:58.007Z,51.74
